AirNav   TITAN Aviation Fuels
 
 442 users online  

49R Real County Airport
Leakey, Texas, USA

GOING TO LEAKEY?


FAA INFORMATION EFFECTIVE 15 JULY 2021

Location

FAA Identifier: 49R
Lat/Long: 29-44-43.8040N 099-45-39.2130W
29-44.730067N 099-45.653550W
29.7455011,-99.7608925
(estimated)
Elevation: 1640 ft. / 500 m (estimated)
Variation: 08E (1985)
From city: 1 mile N of LEAKEY, TX
Time zone: UTC -5 (UTC -6 during Standard Time)
Zip code: 78873

Airport Operations

Airport use: Open to the public
Activation date: 03/1976
Control tower: no
ARTCC: HOUSTON CENTER
FSS: SAN ANGELO FLIGHT SERVICE STATION
NOTAMs facility: SJT (NOTAM-D service available)
Attendance: UNATNDD
Wind indicator: yes
Segmented circle: yes
Lights: SS-SR

Airport Communications

CTAF: 122.9

Nearby radio navigation aids

VOR radial/distance  VOR name  Freq  Var
CSIr242/30.4CENTER POINT VORTAC117.5008E
RSGr110/32.4ROCKSPRINGS VORTAC114.5510E

 
NDB name  Hdg/Dist  Freq  Var  ID
UVALDE350/34.128107EUVA ..- ...- .-

Airport Services

Parking: tiedowns

Runway Information

Runway 15/33

Dimensions: 3975 x 50 ft. / 1212 x 15 m
Surface: asphalt, in good condition
Weight bearing capacity: 
Single wheel: 11.0
Runway edge lights: non-standard
NSTD LIRL DUE TO COLOR. LIRL OTS INDEF.
RUNWAY 15  RUNWAY 33
Traffic pattern: leftleft
Displaced threshold: 240 ft.
DSPLCD THR UNLGTD.
270 ft.
DSPLCD THR UNLGTD.
Markings: basic, in good conditionbasic, in good condition
Obstructions: 20 ft. trees, 200 ft. from runway
+20 FT-30 FT TREES 0 FT-200 FT FM THR, ACRS THR.
35 ft. trees, 200 ft. from runway
15 FT ROAD 70 FT FM THR ACRS EXTDD CNTRLN, 2 FT PIPE GATE AT THR ACRS CNTRLN.

Airport Ownership and Management from official FAA records

Ownership: Privately-owned
COUNTY LEASES RWY, TWY, APRON & ENTRANCE RD.
Owner: JOE NICHOLS
20 CAMPDEN
CORPUS CHRISTI, TX 78412
Phone 361-739-8279
Manager: JUDGE BELLA RUBIO
PO BOX 446
LEAKEY, TX 78873
Phone 830-232-5304
COUNTY JUDGE.

Airport Operational Statistics

Aircraft based on the field: 4
Single engine airplanes: 4
    
Aircraft operations: avg 23/week *
67% local general aviation
33% transient general aviation
* for 12-month period ending 18 August 2016

Additional Remarks

+4 FT FENCE 60 FT WEST RWY CNTRLN FULL LEN RWY.
+4 FT FENCE 100 FT EAST RWY CNTRLN FROM RWY 15 THR SOUTH TO NORTH TWY.
DO NOT USE TURF TWY FROM APRON TO RWY 33 END.
ULTRALIGHT ACT ADJ TO RWY.
FOR CD CTC LAUGHLIN APCH AT 830-298-4350, WHEN APCH CLSD CTC HOUSTON ARTCC AT 281-230-5622.

Instrument Procedures

There are no published instrument procedures at 49R.

Some nearby airports with instrument procedures:

KECU - Edwards County Airport (25 nm NW)
KUVA - Garner Field Airport (32 nm S)
KERV - Kerrville Municipal Airport/Louis Schreiner Field (38 nm E)
KHDO - South Texas Regional Airport at Hondo (38 nm SE)
KJCT - Kimble County Airport (46 nm N)
 
Loc | Ops | Rwys | IFR | FBO | Links
Com | Nav | Svcs | Stats | Notes
Area around 49R (Real County Airport)
 
Road maps at: MapQuest Bing Google
 
Aerial photo
WARNING: Photo may not be current or correct
Aerial photo of 49R (Real County Airport)
Photo by Tim Ingram
Taken in May 2006

Do you have a better or more recent aerial photo of Real County Airport that you would like to share? If so, please send us your photo.

 
Sectional chart

 
Airport distance calculator
Flying to Real County Airport? Find the distance to fly.

From to 49R

Sunrise and sunset
Times for 28-Jul-2021
 Local
(UTC-5)
 Zulu
(UTC)
Morning civil twilight06:3111:31
Sunrise06:5711:57
Sunset20:3401:34
Evening civil twilight21:0002:00

Current date and time
Zulu (UTC)  28-Jul-2021 06:14:45
Local (UTC-5)  28-Jul-2021 01:14:45
 
METAR
KECU 
25nm NW 
280555Z AUTO 14005KT 10SM CLR 25/16 A3015 RMK AO2
KUVA 
32nm S 
280555Z AUTO 06003KT 10SM CLR 25/19 A3005 RMK AO2 T02470190 10351 20247 403620216
KERV 
38nm E 
280555Z AUTO 00000KT 10SM CLR 23/19 A3008 RMK AO2 T02330192 10333 20226 403550205
KHDO 
38nm SE 
280551Z AUTO 09004KT 10SM CLR 26/20 A3003 RMK AO2 SLP151 T02560200 10328 20256 403500206 50011
KJCT 
45nm N 
280551Z AUTO 00000KT 10SM CLR 26/17 A3008 RMK AO2 SLP145 T02610172 10317 20244 403890200 51014
TAF
KJCT 
45nm N 
280523Z 2806/2906 12005KT P6SM SCT250 FM282100 10009KT P6SM BKN060 FM290200 13007KT P6SM SCT250
NOTAMs
Click for the latest NOTAMs
NOTAMs are issued by the DoD/FAA and will open in a separate window not controlled by AirNav.

 

 
 

Would you like to see your business listed on this page?

 If your business provides an interesting product or service to pilots, flight crews, aircraft, or users of the Real County Airport, you should consider listing it here.  To start the listing process, click on the button below
 
Add a business
 

Other Pages about Real County Airport

Update a link
 
Copyright © AirNav, LLC. All rights reserved. Privacy Policy  Contact